N850WA KNEW-KTEB
Flight info
| Callsign | N850WA |
|---|---|
| Flight time | N/A |
| Altitude | 29000 |
| Route | GARTS PAYTN SHYRE MXF OBXAY THRSR TWOUP TNSLY MURKY BLUEJ ANDNN DOCTR SWANN MAZIE3 |
| Aircraft | TBM8/L-SDFGRWY/S |
Departure
| Time | N/A |
|---|---|
| Airport | Lakefront Airport (KNEW) |
Arrival
| Time | 2026-05-08 22:28 |
|---|---|
| Airport | Teterboro Airport (KTEB) |
| Time | Latitude | Longitude | Altitude | Speed | Heading |
|---|---|---|---|---|---|
| 2026-05-08 21:40 | 38.92638 | -76.52675 | 28974 ft | 344 kts | 31° |
| 2026-05-08 21:40 | 38.94259 | -76.50494 | 28980 ft | 344 kts | 31° |
| 2026-05-08 21:41 | 38.99219 | -76.43811 | 28948 ft | 344 kts | 31° |
| 2026-05-08 21:41 | 39.02531 | -76.39369 | 29018 ft | 343 kts | 30° |
| 2026-05-08 21:42 | 39.05890 | -76.35038 | 29022 ft | 342 kts | 30° |
| 2026-05-08 21:42 | 39.09226 | -76.30654 | 29013 ft | 342 kts | 30° |
| 2026-05-08 21:43 | 39.12544 | -76.26314 | 29015 ft | 342 kts | 30° |
| 2026-05-08 21:43 | 39.15911 | -76.22006 | 29016 ft | 336 kts | 25° |
| 2026-05-08 21:44 | 39.19388 | -76.17948 | 29016 ft | 338 kts | 26° |
| 2026-05-08 21:44 | 39.22856 | -76.13876 | 29058 ft | 337 kts | 26° |
| 2026-05-08 21:45 | 39.26332 | -76.09844 | 29056 ft | 331 kts | 21° |
| 2026-05-08 21:45 | 39.29987 | -76.06375 | 29055 ft | 326 kts | 19° |
| 2026-05-08 21:46 | 39.33628 | -76.02878 | 29056 ft | 326 kts | 19° |
| 2026-05-08 21:46 | 39.37281 | -75.99397 | 29058 ft | 326 kts | 18° |
| 2026-05-08 21:47 | 39.40945 | -75.95954 | 29104 ft | 326 kts | 19° |
| 2026-05-08 21:47 | 39.44589 | -75.92483 | 28969 ft | 321 kts | 20° |
| 2026-05-08 21:48 | 39.46307 | -75.90780 | 28602 ft | 301 kts | 19° |
| 2026-05-08 21:48 | 39.47947 | -75.89232 | 28243 ft | 283 kts | 16° |
| 2026-05-08 21:48 | 39.49524 | -75.87798 | 27874 ft | 272 kts | 15° |
| 2026-05-08 21:48 | 39.51083 | -75.86376 | 27477 ft | 280 kts | 15° |
| 2026-05-08 21:49 | 39.52715 | -75.84878 | 27091 ft | 296 kts | 18° |
| 2026-05-08 21:49 | 39.54395 | -75.83246 | 26716 ft | 307 kts | 20° |
| 2026-05-08 21:49 | 39.56120 | -75.81566 | 26351 ft | 312 kts | 20° |
| 2026-05-08 21:49 | 39.57881 | -75.79892 | 25986 ft | 316 kts | 20° |
| 2026-05-08 21:50 | 39.59687 | -75.78285 | 25619 ft | 316 kts | 18° |
| 2026-05-08 21:50 | 39.61496 | -75.76610 | 25282 ft | 320 kts | 21° |
| 2026-05-08 21:50 | 39.63294 | -75.74906 | 24926 ft | 320 kts | 21° |
| 2026-05-08 21:50 | 39.65108 | -75.73240 | 24523 ft | 320 kts | 20° |
| 2026-05-08 21:51 | 39.66919 | -75.71600 | 24100 ft | 322 kts | 21° |
| 2026-05-08 21:51 | 39.68755 | -75.69916 | 23643 ft | 324 kts | 21° |
| 2026-05-08 21:51 | 39.70599 | -75.68211 | 23120 ft | 325 kts | 22° |
| 2026-05-08 21:51 | 39.72441 | -75.66513 | 22580 ft | 324 kts | 22° |
| 2026-05-08 21:52 | 39.74275 | -75.64826 | 22049 ft | 322 kts | 22° |
| 2026-05-08 21:52 | 39.76095 | -75.63148 | 21528 ft | 320 kts | 22° |
| 2026-05-08 21:52 | 39.77904 | -75.61480 | 21053 ft | 316 kts | 23° |
| 2026-05-08 21:52 | 39.79687 | -75.59833 | 20621 ft | 312 kts | 23° |
| 2026-05-08 21:53 | 39.81444 | -75.58214 | 20198 ft | 308 kts | 23° |
| 2026-05-08 21:53 | 39.83185 | -75.56610 | 19794 ft | 305 kts | 23° |
| 2026-05-08 21:53 | 39.84908 | -75.55019 | 19376 ft | 302 kts | 23° |
| 2026-05-08 21:53 | 39.86611 | -75.53444 | 18969 ft | 299 kts | 23° |
| 2026-05-08 21:54 | 39.88208 | -75.51969 | 18590 ft | 296 kts | 24° |
| 2026-05-08 21:54 | 39.89842 | -75.50458 | 18195 ft | 294 kts | 24° |
| 2026-05-08 21:54 | 39.91505 | -75.48917 | 17735 ft | 291 kts | 24° |
| 2026-05-08 21:54 | 39.93122 | -75.47416 | 17368 ft | 286 kts | 24° |
| 2026-05-08 21:55 | 39.94723 | -75.45929 | 17022 ft | 279 kts | 23° |
| 2026-05-08 21:55 | 39.96294 | -75.44476 | 16672 ft | 275 kts | 23° |
| 2026-05-08 21:55 | 39.97841 | -75.43043 | 16310 ft | 272 kts | 23° |
| 2026-05-08 21:56 | 40.00872 | -75.40218 | 15638 ft | 262 kts | 22° |
| 2026-05-08 21:56 | 40.02344 | -75.38858 | 15337 ft | 259 kts | 21° |
| 2026-05-08 21:56 | 40.03820 | -75.37507 | 15038 ft | 260 kts | 22° |
| 2026-05-08 21:56 | 40.05292 | -75.36127 | 14746 ft | 259 kts | 22° |
| 2026-05-08 21:57 | 40.06754 | -75.34759 | 14456 ft | 257 kts | 22° |
| 2026-05-08 21:57 | 40.08200 | -75.33411 | 14204 ft | 254 kts | 22° |
| 2026-05-08 21:57 | 40.09629 | -75.32082 | 13965 ft | 251 kts | 21° |
| 2026-05-08 21:57 | 40.11048 | -75.30756 | 13719 ft | 249 kts | 22° |
| 2026-05-08 21:58 | 40.12452 | -75.29449 | 13449 ft | 247 kts | 22° |
| 2026-05-08 21:58 | 40.13847 | -75.28149 | 13175 ft | 246 kts | 22° |
| 2026-05-08 21:58 | 40.15233 | -75.26855 | 12931 ft | 244 kts | 22° |
| 2026-05-08 21:58 | 40.16624 | -75.25569 | 12717 ft | 247 kts | 22° |
| 2026-05-08 21:59 | 40.18042 | -75.24263 | 12507 ft | 252 kts | 24° |
| 2026-05-08 21:59 | 40.19457 | -75.22932 | 12315 ft | 255 kts | 24° |
| 2026-05-08 21:59 | 40.20907 | -75.21572 | 12110 ft | 258 kts | 24° |
| 2026-05-08 21:59 | 40.22372 | -75.20202 | 11899 ft | 259 kts | 25° |
| 2026-05-08 22:00 | 40.23830 | -75.18835 | 11809 ft | 255 kts | 25° |
| 2026-05-08 22:00 | 40.25253 | -75.17500 | 11805 ft | 249 kts | 24° |
| 2026-05-08 22:00 | 40.26655 | -75.16194 | 11765 ft | 247 kts | 24° |
| 2026-05-08 22:00 | 40.28091 | -75.14864 | 11404 ft | 257 kts | 25° |
| 2026-05-08 22:01 | 40.29565 | -75.13482 | 11052 ft | 263 kts | 26° |
| 2026-05-08 22:01 | 40.31063 | -75.12071 | 10704 ft | 266 kts | 27° |
| 2026-05-08 22:01 | 40.32540 | -75.10582 | 10338 ft | 271 kts | 37° |
| 2026-05-08 22:01 | 40.33765 | -75.08798 | 9950 ft | 256 kts | 43° |
| 2026-05-08 22:02 | 40.34923 | -75.07096 | 9524 ft | 244 kts | 40° |
| 2026-05-08 22:02 | 40.36042 | -75.05551 | 9093 ft | 217 kts | 40° |
| 2026-05-08 22:02 | 40.37015 | -75.04177 | 8434 ft | 198 kts | 39° |
| 2026-05-08 22:02 | 40.37953 | -75.02888 | 7740 ft | 193 kts | 39° |
| 2026-05-08 22:03 | 40.38858 | -75.01632 | 7110 ft | 187 kts | 39° |
| 2026-05-08 22:03 | 40.39686 | -75.00459 | 6992 ft | 165 kts | 38° |
| 2026-05-08 22:03 | 40.40525 | -74.99359 | 6990 ft | 178 kts | 37° |
| 2026-05-08 22:03 | 40.41409 | -74.98127 | 7003 ft | 192 kts | 40° |
| 2026-05-08 22:04 | 40.42329 | -74.96789 | 7009 ft | 202 kts | 41° |
| 2026-05-08 22:04 | 40.43296 | -74.95409 | 7008 ft | 208 kts | 40° |
| 2026-05-08 22:04 | 40.44293 | -74.94004 | 7007 ft | 212 kts | 40° |
| 2026-05-08 22:04 | 40.45302 | -74.92582 | 7007 ft | 214 kts | 40° |
| 2026-05-08 22:05 | 40.46321 | -74.91146 | 7009 ft | 215 kts | 40° |
| 2026-05-08 22:05 | 40.47353 | -74.89708 | 7007 ft | 224 kts | 40° |
| 2026-05-08 22:05 | 40.48445 | -74.88175 | 7007 ft | 234 kts | 41° |
| 2026-05-08 22:05 | 40.49559 | -74.86585 | 7002 ft | 239 kts | 41° |
| 2026-05-08 22:06 | 40.50694 | -74.84974 | 7003 ft | 242 kts | 41° |
| 2026-05-08 22:06 | 40.51844 | -74.83346 | 7003 ft | 244 kts | 41° |
| 2026-05-08 22:06 | 40.53006 | -74.81705 | 7004 ft | 246 kts | 41° |
| 2026-05-08 22:06 | 40.54170 | -74.80056 | 7003 ft | 247 kts | 41° |
| 2026-05-08 22:07 | 40.55338 | -74.78399 | 7005 ft | 247 kts | 41° |
| 2026-05-08 22:07 | 40.56507 | -74.76744 | 7002 ft | 247 kts | 41° |
| 2026-05-08 22:07 | 40.57673 | -74.75091 | 7002 ft | 247 kts | 41° |
| 2026-05-08 22:07 | 40.58860 | -74.73464 | 7003 ft | 246 kts | 38° |
| 2026-05-08 22:08 | 40.60050 | -74.71844 | 6999 ft | 246 kts | 40° |
| 2026-05-08 22:08 | 40.61369 | -74.70074 | 6996 ft | 245 kts | 39° |
| 2026-05-08 22:08 | 40.62440 | -74.68638 | 6798 ft | 245 kts | 40° |
| 2026-05-08 22:08 | 40.63631 | -74.67047 | 6549 ft | 243 kts | 40° |
| 2026-05-08 22:09 | 40.64818 | -74.65469 | 6304 ft | 242 kts | 40° |
| 2026-05-08 22:09 | 40.66010 | -74.63901 | 6044 ft | 242 kts | 40° |
| 2026-05-08 22:09 | 40.67206 | -74.62347 | 5779 ft | 241 kts | 40° |
| 2026-05-08 22:09 | 40.68402 | -74.60799 | 5525 ft | 240 kts | 40° |
| 2026-05-08 22:10 | 40.69595 | -74.59271 | 5270 ft | 238 kts | 39° |
| 2026-05-08 22:10 | 40.70764 | -74.57784 | 5029 ft | 235 kts | 40° |
| 2026-05-08 22:10 | 40.71943 | -74.56297 | 4802 ft | 234 kts | 39° |
| 2026-05-08 22:10 | 40.73117 | -74.54826 | 4578 ft | 232 kts | 39° |
| 2026-05-08 22:11 | 40.74286 | -74.53360 | 4352 ft | 231 kts | 39° |
| 2026-05-08 22:11 | 40.75439 | -74.51886 | 4163 ft | 231 kts | 39° |
| 2026-05-08 22:11 | 40.76588 | -74.50420 | 3926 ft | 229 kts | 39° |
| 2026-05-08 22:11 | 40.77675 | -74.49023 | 3694 ft | 229 kts | 39° |
| 2026-05-08 22:12 | 40.78810 | -74.47560 | 3448 ft | 227 kts | 39° |
| 2026-05-08 22:12 | 40.79937 | -74.46108 | 3182 ft | 226 kts | 39° |
| 2026-05-08 22:12 | 40.81060 | -74.44657 | 3019 ft | 221 kts | 40° |
| 2026-05-08 22:12 | 40.82141 | -74.43276 | 3015 ft | 212 kts | 39° |
| 2026-05-08 22:13 | 40.83187 | -74.41938 | 3011 ft | 208 kts | 39° |
| 2026-05-08 22:13 | 40.84207 | -74.40606 | 3007 ft | 205 kts | 40° |
| 2026-05-08 22:13 | 40.85227 | -74.39301 | 3011 ft | 203 kts | 38° |
| 2026-05-08 22:13 | 40.86215 | -74.38006 | 3014 ft | 202 kts | 39° |
| 2026-05-08 22:14 | 40.87230 | -74.36686 | 3005 ft | 203 kts | 39° |
| 2026-05-08 22:14 | 40.88236 | -74.35378 | 3014 ft | 204 kts | 39° |
| 2026-05-08 22:14 | 40.89249 | -74.34083 | 3012 ft | 206 kts | 39° |
| 2026-05-08 22:14 | 40.90289 | -74.32756 | 3015 ft | 210 kts | 39° |
| 2026-05-08 22:15 | 40.91357 | -74.31399 | 3031 ft | 214 kts | 39° |
| 2026-05-08 22:15 | 40.92447 | -74.30008 | 2988 ft | 221 kts | 39° |
| 2026-05-08 22:15 | 40.93513 | -74.28653 | 2750 ft | 230 kts | 39° |
| 2026-05-08 22:15 | 40.94671 | -74.27167 | 2499 ft | 234 kts | 39° |
| 2026-05-08 22:16 | 40.95838 | -74.25659 | 2237 ft | 235 kts | 39° |
| 2026-05-08 22:16 | 40.96900 | -74.24291 | 2037 ft | 233 kts | 39° |
| 2026-05-08 22:16 | 40.98032 | -74.22824 | 2031 ft | 225 kts | 39° |
| 2026-05-08 22:16 | 40.99060 | -74.21495 | 2012 ft | 220 kts | 39° |
| 2026-05-08 22:17 | 41.00034 | -74.20214 | 2005 ft | 217 kts | 40° |
| 2026-05-08 22:17 | 41.00983 | -74.18976 | 2005 ft | 213 kts | 38° |
| 2026-05-08 22:17 | 41.01843 | -74.17859 | 2002 ft | 211 kts | 38° |
| 2026-05-08 22:17 | 41.02873 | -74.16485 | 2008 ft | 210 kts | 39° |
| 2026-05-08 22:18 | 41.03917 | -74.15121 | 2005 ft | 211 kts | 39° |
| 2026-05-08 22:18 | 41.04974 | -74.13749 | 2008 ft | 215 kts | 39° |
| 2026-05-08 22:18 | 41.06064 | -74.12352 | 2014 ft | 220 kts | 39° |
| 2026-05-08 22:18 | 41.07175 | -74.10941 | 2010 ft | 216 kts | 40° |
| 2026-05-08 22:19 | 41.08170 | -74.09618 | 2003 ft | 190 kts | 39° |
| 2026-05-08 22:19 | 41.09067 | -74.08435 | 1996 ft | 175 kts | 39° |
| 2026-05-08 22:19 | 41.09879 | -74.07309 | 1991 ft | 165 kts | 39° |
| 2026-05-08 22:19 | 41.10668 | -74.06226 | 1989 ft | 162 kts | 38° |
| 2026-05-08 22:20 | 41.11452 | -74.05154 | 1992 ft | 162 kts | 39° |
| 2026-05-08 22:20 | 41.12230 | -74.04065 | 1992 ft | 162 kts | 39° |
| 2026-05-08 22:20 | 41.12883 | -74.02846 | 1985 ft | 168 kts | 69° |
| 2026-05-08 22:20 | 41.12784 | -74.01492 | 1985 ft | 171 kts | 119° |
| 2026-05-08 22:21 | 41.11937 | -74.00604 | 1987 ft | 162 kts | 172° |
| 2026-05-08 22:21 | 41.10846 | -74.00803 | 1992 ft | 161 kts | 207° |
| 2026-05-08 22:21 | 41.09775 | -74.01318 | 2010 ft | 167 kts | 206° |
| 2026-05-08 22:21 | 41.08662 | -74.01855 | 2007 ft | 173 kts | 207° |
| 2026-05-08 22:22 | 41.07528 | -74.02397 | 2009 ft | 173 kts | 206° |
| 2026-05-08 22:22 | 41.06405 | -74.02974 | 2010 ft | 172 kts | 207° |
| 2026-05-08 22:22 | 41.05291 | -74.03525 | 2007 ft | 170 kts | 207° |
| 2026-05-08 22:22 | 41.04199 | -74.04066 | 2018 ft | 166 kts | 204° |
| 2026-05-08 22:23 | 41.03081 | -74.04493 | 2075 ft | 170 kts | 198° |
| 2026-05-08 22:23 | 41.01892 | -74.04545 | 2102 ft | 175 kts | 187° |
| 2026-05-08 22:23 | 41.00665 | -74.04547 | 2052 ft | 178 kts | 186° |
| 2026-05-08 22:23 | 40.99424 | -74.04516 | 2024 ft | 178 kts | 185° |
| 2026-05-08 22:24 | 40.98188 | -74.04553 | 1973 ft | 176 kts | 200° |
| 2026-05-08 22:24 | 40.97434 | -74.04869 | 1971 ft | 162 kts | 202° |
| 2026-05-08 22:24 | 40.96024 | -74.05122 | 1806 ft | 154 kts | 192° |
| 2026-05-08 22:24 | 40.95451 | -74.05135 | 1685 ft | 151 kts | 190° |
| 2026-05-08 22:25 | 40.94109 | -74.05204 | 1412 ft | 139 kts | 196° |
| 2026-05-08 22:25 | 40.93492 | -74.05308 | 1335 ft | 131 kts | 197° |
| 2026-05-08 22:25 | 40.92247 | -74.05370 | 1274 ft | 145 kts | 185° |
| 2026-05-08 22:25 | 40.91579 | -74.05400 | 1230 ft | 145 kts | 194° |
| 2026-05-08 22:26 | 40.90603 | -74.05581 | 1243 ft | 137 kts | 194° |
| 2026-05-08 22:26 | 40.89702 | -74.05618 | 996 ft | 123 kts | 186° |
| 2026-05-08 22:26 | 40.88974 | -74.05652 | 852 ft | 94 kts | 187° |
| 2026-05-08 22:26 | 40.88328 | -74.05710 | 720 ft | 96 kts | 186° |
| 2026-05-08 22:27 | 40.87638 | -74.05766 | 578 ft | 101 kts | 184° |
| 2026-05-08 22:27 | 40.86918 | -74.05803 | 390 ft | 104 kts | 183° |
| 2026-05-08 22:27 | 40.86196 | -74.05875 | 203 ft | 101 kts | 183° |
| 2026-05-08 22:27 | 40.85518 | -74.05920 | 20 ft | 90 kts | 185° |
| 2026-05-08 22:28 | 40.84994 | -74.05965 | 6 ft | 57 kts | 182° |
| 2026-05-08 22:28 | 40.84794 | -74.05979 | 10 ft | 20 kts | 199° |
| 2026-05-08 22:28 | 40.84713 | -74.06059 | 10 ft | 13 kts | 226° |
| 2026-05-08 22:28 | 40.84686 | -74.06099 | 9 ft | 2 kts | 227° |
| 2026-05-08 22:29 | 40.84673 | -74.06114 | 10 ft | 14 kts | 211° |
| 2026-05-08 22:30 | 40.84559 | -74.06132 | 9 ft | 16 kts | 182° |
| 2026-05-08 22:30 | 40.84455 | -74.06139 | 9 ft | 14 kts | 184° |
| 2026-05-08 22:30 | 40.84361 | -74.06147 | 9 ft | 13 kts | 184° |
| 2026-05-08 22:30 | 40.84278 | -74.06154 | 9 ft | 11 kts | 184° |
| 2026-05-08 22:31 | 40.84241 | -74.06210 | 9 ft | 8 kts | 271° |
| 2026-05-08 22:31 | 40.84243 | -74.06274 | 6 ft | 6 kts | 271° |
| 2026-05-08 22:31 | 40.84245 | -74.06349 | 3 ft | 5 kts | 275° |
| 2026-05-08 22:31 | 40.84246 | -74.06362 | 15 ft | 0 kts | 272° |
| 2026-05-08 22:32 | 40.84246 | -74.06369 | 17 ft | 6 kts | 271° |
| 2026-05-08 22:32 | 40.84242 | -74.06447 | 13 ft | 15 kts | 246° |
| 2026-05-08 22:32 | 40.84172 | -74.06510 | 13 ft | 8 kts | 207° |
| 2026-05-08 22:32 | 40.84126 | -74.06546 | 13 ft | 4 kts | 251° |
| 2026-05-08 22:33 | 40.84127 | -74.06564 | 13 ft | 1 kts | 296° |
| 2026-05-08 22:33 | 40.84131 | -74.06572 | 13 ft | 0 kts | 301° |
| 2026-05-08 22:33 | 40.84158 | -74.06572 | 13 ft | 4 kts | 28° |
| 2026-05-08 22:33 | 40.84164 | -74.06568 | 13 ft | 0 kts | 28° |